This is the latest recevied weather packets stored in our database for station/object SP6KBU-12. If no packets are shown the sender has not sent any weather packets the latest 10 day(s).
| Time | Temp. | Humidity | Pressure | Rain* | Wind** | Luminosity | Snow |
|---|---|---|---|---|---|---|---|
| 1777779081 | 13.89° C | 35% | 1018.6 hPa | - | - | - | - |
| 1777778179 | 13.89° C | 34% | 1018.3 hPa | - | - | - | - |
| 1777777279 | 13.89° C | 34% | 1018.6 hPa | - | - | - | - |
| 1777776379 | 13.89° C | 35% | 1018.5 hPa | - | - | - | - |
| 1777775477 | 13.89° C | 34% | 1018.7 hPa | - | - | - | - |
| 1777774576 | 13.89° C | 36% | 1018.6 hPa | - | - | - | - |
| 1777773675 | 13.89° C | 36% | 1018.8 hPa | - | - | - | - |
| 1777772774 | 13.89° C | 36% | 1019 hPa | - | - | - | - |
| 1777771873 | 13.89° C | 36% | 1018.9 hPa | - | - | - | - |
| 1777770972 | 13.89° C | 36% | 1019 hPa | - | - | - | - |
| 1777770071 | 13.89° C | 36% | 1019 hPa | - | - | - | - |
| 1777769170 | 13.89° C | 36% | 1019.1 hPa | - | - | - | - |
| 1777768269 | 13.89° C | 37% | 1019.2 hPa | - | - | - | - |
| 1777767368 | 13.89° C | 37% | 1019.3 hPa | - | - | - | - |
| 1777766467 | 14.44° C | 35% | 1019.4 hPa | - | - | - | - |
| 1777765566 | 15° C | 34% | 1019.4 hPa | - | - | - | - |
| 1777764665 | 15° C | 34% | 1019.6 hPa | - | - | - | - |
| 1777763764 | 15° C | 35% | 1019.6 hPa | - | - | - | - |
| 1777762863 | 14.44° C | 36% | 1019.9 hPa | - | - | - | - |
| 1777761962 | 13.33° C | 38% | 1020 hPa | - | - | - | - |
| 1777761061 | 12.78° C | 39% | 1020.1 hPa | - | - | - | - |
| 1777760160 | 13.89° C | 36% | 1020.1 hPa | - | - | - | - |
| 1777759258 | 14.44° C | 35% | 1020.2 hPa | - | - | - | - |
| 1777758359 | 14.44° C | 35% | 1020.3 hPa | - | - | - | - |
| 1777757457 | 15° C | 35% | 1020.2 hPa | - | - | - | - |
* Rain since midnight (hover to see other rain measurements)
** Current wind speed in m/s (hover to see current wind gust speed)